createdAt,value
2022-08-17T04:45:59.947Z,76.26
2022-08-17T04:47:00.937Z,75.96
2022-08-17T04:48:00.935Z,75.76
2022-08-17T04:49:00.914Z,76.36
2022-08-17T04:50:00.899Z,75.76
2022-08-17T04:51:00.887Z,75.96
2022-08-17T04:52:04.402Z,75.96
2022-08-17T04:53:01.255Z,76.87
2022-08-17T04:54:00.853Z,75.86
2022-08-17T04:55:00.850Z,76.06
2022-08-17T04:56:00.833Z,76.26
2022-08-17T04:57:00.829Z,75.76
2022-08-17T04:58:00.825Z,76.16
2022-08-17T04:59:00.807Z,76.67
2022-08-17T05:00:00.786Z,76.36
2022-08-17T05:01:00.814Z,77.17
2022-08-17T05:02:00.780Z,76.67
2022-08-17T05:03:00.776Z,76.87
2022-08-17T05:04:00.749Z,76.56
2022-08-17T05:05:00.744Z,76.56
2022-08-17T05:06:00.730Z,76.97
2022-08-17T05:07:00.732Z,77.37
2022-08-17T05:08:00.720Z,76.26
2022-08-17T05:09:00.709Z,76.76
2022-08-17T05:10:00.684Z,77.07
2022-08-17T05:11:00.677Z,77.63
2022-08-17T05:12:00.664Z,76.93
2022-08-17T05:13:00.689Z,76.93
2022-08-17T05:14:00.642Z,76.83
2022-08-17T05:15:00.633Z,77.03
2022-08-17T05:16:00.620Z,76.69
2022-08-17T05:17:00.614Z,77.00
2022-08-17T05:18:00.611Z,77.50
2022-08-17T05:19:00.595Z,76.09
2022-08-17T05:20:00.576Z,77.00
2022-08-17T05:21:00.571Z,78.00
2022-08-17T05:22:00.557Z,77.50
2022-08-17T05:23:00.563Z,77.59
2022-08-17T05:24:00.534Z,77.26
2022-08-17T05:25:01.830Z,76.45
2022-08-17T05:26:00.514Z,76.76
2022-08-17T05:27:06.607Z,77.36
2022-08-17T05:28:00.515Z,79.06
2022-08-17T05:29:02.740Z,77.36
2022-08-17T05:30:00.468Z,79.63
2022-08-17T05:31:00.467Z,76.52
2022-08-17T05:32:00.451Z,76.92
2022-08-17T05:33:00.462Z,75.71
2022-08-17T05:34:00.429Z,75.98
2022-08-17T05:35:00.770Z,75.18
2022-08-17T05:36:00.406Z,75.58
2022-08-17T05:37:00.399Z,74.14
2022-08-17T05:38:00.405Z,73.44
2022-08-17T05:39:00.378Z,75.41
2022-08-17T05:40:00.550Z,72.60
2022-08-17T05:41:00.360Z,72.09
2022-08-17T05:42:00.342Z,72.56
2022-08-17T05:43:00.355Z,73.07
2022-08-17T05:44:00.324Z,71.93
2022-08-17T05:45:00.328Z,71.12
2022-08-17T05:46:00.299Z,70.23
2022-08-17T05:47:00.297Z,70.09
2022-08-17T05:48:00.281Z,69.89
2022-08-17T05:49:00.289Z,69.66
2022-08-17T05:50:00.261Z,72.46
2022-08-17T05:51:00.250Z,68.16
2022-08-17T05:52:00.243Z,68.82
2022-08-17T05:53:00.226Z,67.32
2022-08-17T05:54:00.234Z,66.09
2022-08-17T05:55:00.216Z,70.09
2022-08-17T05:56:00.192Z,65.96
2022-08-17T05:57:00.186Z,66.06
2022-08-17T05:58:00.270Z,64.76
2022-08-17T05:59:00.175Z,64.23
2022-08-17T06:00:00.198Z,67.13
2022-08-17T06:01:00.198Z,67.43
2022-08-17T06:02:00.127Z,66.83
2022-08-17T06:03:00.120Z,66.33
2022-08-17T06:04:00.116Z,65.00
2022-08-17T06:05:00.102Z,65.60
2022-08-17T06:06:00.086Z,62.60
2022-08-17T06:07:00.077Z,63.30
2022-08-17T06:08:00.061Z,61.47
2022-08-17T06:09:00.070Z,61.68
2022-08-17T06:10:00.047Z,61.57
2022-08-17T06:11:00.028Z,60.65
2022-08-17T06:12:00.016Z,61.44
2022-08-17T06:13:00.009Z,61.15
2022-08-17T06:14:00.034Z,62.94
2022-08-17T06:14:59.991Z,62.94
2022-08-17T06:15:59.976Z,58.92
2022-08-17T06:16:59.972Z,60.82
2022-08-17T06:18:00.477Z,59.82
2022-08-17T06:18:59.962Z,58.03
2022-08-17T06:19:59.933Z,58.59
2022-08-17T06:20:59.926Z,57.80
2022-08-17T06:21:59.908Z,57.20
2022-08-17T06:22:59.907Z,59.36
2022-08-17T06:23:59.902Z,56.18
2022-08-17T06:24:59.884Z,57.28
2022-08-17T06:25:59.870Z,59.17
2022-08-17T06:26:59.863Z,55.78
2022-08-17T06:27:59.847Z,57.54
2022-08-17T06:28:59.852Z,56.85
2022-08-17T06:29:59.826Z,56.75
2022-08-17T06:31:01.386Z,56.95
2022-08-17T06:31:59.804Z,55.16
2022-08-17T06:32:59.800Z,56.95
2022-08-17T06:33:59.797Z,56.02
2022-08-17T06:34:59.777Z,56.52
2022-08-17T06:35:59.763Z,55.93
2022-08-17T06:36:59.769Z,57.22
2022-08-17T06:37:59.740Z,55.53
2022-08-17T06:38:59.746Z,55.53
2022-08-17T06:39:59.791Z,55.43
2022-08-17T06:40:59.708Z,55.13
2022-08-17T06:41:59.698Z,54.73
2022-08-17T06:43:05.300Z,55.43
2022-08-17T06:43:59.708Z,55.50
2022-08-17T06:44:59.667Z,55.40
2022-08-17T06:45:59.655Z,56.49
2022-08-17T06:46:59.648Z,56.10
2022-08-17T06:47:59.634Z,57.09
2022-08-17T06:48:59.625Z,57.19
2022-08-17T06:49:59.628Z,56.20
2022-08-17T06:50:59.607Z,57.49
2022-08-17T06:51:59.591Z,57.56
2022-08-17T06:52:59.883Z,57.36
2022-08-17T06:53:59.580Z,55.27
2022-08-17T06:54:59.602Z,55.97
2022-08-17T06:55:59.547Z,56.27
2022-08-17T06:56:59.546Z,57.04
2022-08-17T06:57:59.523Z,53.66
2022-08-17T06:58:59.523Z,54.46
2022-08-17T06:59:59.515Z,53.96
2022-08-17T07:00:59.587Z,53.83
2022-08-17T07:01:59.481Z,53.63
2022-08-17T07:02:59.481Z,54.03
2022-08-17T07:03:59.463Z,52.84
2022-08-17T07:04:59.476Z,52.94
2022-08-17T07:05:59.441Z,53.93
2022-08-17T07:06:59.431Z,52.94
2022-08-17T07:07:59.414Z,54.23
2022-08-17T07:08:59.408Z,52.72
2022-08-17T07:09:59.407Z,53.80
2022-08-17T07:10:59.387Z,52.44
2022-08-17T07:11:59.376Z,54.72
2022-08-17T07:12:59.363Z,53.63
2022-08-17T07:13:59.356Z,53.53
2022-08-17T07:14:59.356Z,54.33
2022-08-17T07:15:59.335Z,54.33
2022-08-17T07:16:59.333Z,54.25
2022-08-17T07:17:59.582Z,53.86
2022-08-17T07:18:59.366Z,54.46
2022-08-17T07:19:59.303Z,54.35
2022-08-17T07:20:59.282Z,54.58
2022-08-17T07:21:59.293Z,54.88
2022-08-17T07:23:00.501Z,55.67
2022-08-17T07:23:59.245Z,55.47
2022-08-17T07:24:59.260Z,59.55
2022-08-17T07:25:59.226Z,55.87
2022-08-17T07:26:59.225Z,57.06
2022-08-17T07:27:59.198Z,56.57
2022-08-17T07:28:59.201Z,56.27
2022-08-17T07:29:59.198Z,57.06
2022-08-17T07:30:59.175Z,55.77
2022-08-17T07:31:59.159Z,53.78
2022-08-17T07:32:59.147Z,54.18
2022-08-17T07:33:59.145Z,53.98
2022-08-17T07:34:59.147Z,54.28
2022-08-17T07:36:49.010Z,55.27
2022-08-17T07:37:50.138Z,54.88
2022-08-17T07:38:50.009Z,54.38
2022-08-17T07:40:15.261Z,55.27
2022-08-17T07:40:50.009Z,54.85
2022-08-17T07:41:53.232Z,54.78
2022-08-17T07:42:49.974Z,55.85
2022-08-17T07:43:49.952Z,53.76
2022-08-17T07:44:49.941Z,54.35
2022-08-17T07:45:49.942Z,54.95
2022-08-17T07:46:50.023Z,55.05
2022-08-17T07:47:57.307Z,54.55
2022-08-17T07:48:52.272Z,54.25
2022-08-17T07:49:54.558Z,55.94
2022-08-17T07:50:51.823Z,54.72
2022-08-17T07:51:49.911Z,54.23
2022-08-17T07:52:51.409Z,54.43
2022-08-17T07:53:49.844Z,55.02
2022-08-17T07:54:49.840Z,54.93
2022-08-17T07:55:49.839Z,56.68
2022-08-17T07:56:49.815Z,54.80
2022-08-17T07:57:49.954Z,55.89
2022-08-17T07:58:49.797Z,55.00
2022-08-17T07:59:49.817Z,54.60
2022-08-17T08:00:49.787Z,54.38
2022-08-17T08:01:49.808Z,54.17
2022-08-17T08:02:49.760Z,54.28
2022-08-17T08:03:52.582Z,55.94
2022-08-17T08:05:00.761Z,53.16
2022-08-17T08:05:50.962Z,52.47
2022-08-17T08:06:49.714Z,54.02
2022-08-17T08:07:49.868Z,52.12
2022-08-17T08:08:49.692Z,52.02
2022-08-17T08:09:49.679Z,52.69
2022-08-17T08:10:49.682Z,51.47
2022-08-17T08:11:49.659Z,50.48
2022-08-17T08:12:53.747Z,51.87
2022-08-17T08:13:49.623Z,55.04
2022-08-17T08:14:49.641Z,52.93
2022-08-17T08:15:54.246Z,51.07
2022-08-17T08:16:49.659Z,53.25
2022-08-17T08:17:49.754Z,52.07
2022-08-17T08:18:54.109Z,50.51
2022-08-17T08:19:49.570Z,51.70
2022-08-17T08:20:52.065Z,51.00
2022-08-17T08:21:49.543Z,52.19
2022-08-17T08:22:49.552Z,51.60
2022-08-17T08:23:49.516Z,52.76
2022-08-17T08:24:49.519Z,50.48
2022-08-17T08:25:53.323Z,50.34
2022-08-17T08:26:49.504Z,54.44
2022-08-17T08:27:49.721Z,47.77
2022-08-17T08:28:49.475Z,46.76
2022-08-17T08:29:49.458Z,46.64
2022-08-17T08:30:49.475Z,46.81
2022-08-17T08:31:49.437Z,48.10
2022-08-17T08:32:50.433Z,47.60
2022-08-17T08:33:49.416Z,49.08
2022-08-17T08:35:01.736Z,46.96
2022-08-17T08:35:49.402Z,47.00
2022-08-17T08:37:13.003Z,48.51
2022-08-17T08:37:49.559Z,50.59
2022-08-17T08:38:49.369Z,49.89
2022-08-17T08:39:49.437Z,49.22
2022-08-17T08:40:49.346Z,52.48
2022-08-17T08:41:49.348Z,49.02
2022-08-17T08:42:49.343Z,50.31
2022-08-17T08:43:52.804Z,50.04
2022-08-17T08:45:00.801Z,51.50
2022-08-17T08:45:49.315Z,50.61
2022-08-17T08:46:49.307Z,51.97
2022-08-17T08:47:49.324Z,52.17
2022-08-17T08:48:56.603Z,52.36
2022-08-17T08:50:05.627Z,47.72
2022-08-17T08:50:49.272Z,50.59
2022-08-17T08:51:49.235Z,47.40
2022-08-17T08:52:49.226Z,46.22
2022-08-17T08:53:49.215Z,45.60
2022-08-17T08:54:49.223Z,46.04
2022-08-17T08:55:49.214Z,45.31
2022-08-17T08:57:11.924Z,41.90
2022-08-17T08:57:49.309Z,41.56
2022-08-17T08:58:49.166Z,40.74
2022-08-17T08:59:51.160Z,40.61
2022-08-17T09:00:49.170Z,40.08
2022-08-17T09:01:49.207Z,39.37
2022-08-17T09:02:49.124Z,39.45
2022-08-17T09:03:53.066Z,38.15
2022-08-17T09:05:12.934Z,39.22
2022-08-17T09:05:49.513Z,41.02
2022-08-17T09:06:49.080Z,40.25
2022-08-17T09:07:49.150Z,39.82
2022-08-17T09:08:49.065Z,39.29
2022-08-17T09:09:49.038Z,39.47
2022-08-17T09:10:49.045Z,38.31
2022-08-17T09:12:01.126Z,38.72
2022-08-17T09:12:49.020Z,39.47
2022-08-17T09:13:54.413Z,41.06
2022-08-17T09:14:49.000Z,40.58
2022-08-17T09:15:48.994Z,41.11
2022-08-17T09:16:48.971Z,41.31
2022-08-17T09:17:49.032Z,40.43
2022-08-17T09:19:00.039Z,41.78
2022-08-17T09:19:48.948Z,39.84
2022-08-17T09:20:50.350Z,40.33
2022-08-17T09:21:49.031Z,41.88
2022-08-17T09:22:48.923Z,41.29
2022-08-17T09:23:48.896Z,42.28
2022-08-17T09:24:48.906Z,41.00
2022-08-17T09:25:48.873Z,42.57
2022-08-17T09:26:48.872Z,42.99
2022-08-17T09:27:49.026Z,42.12
2022-08-17T09:28:48.851Z,42.93
2022-08-17T09:29:50.017Z,43.10
2022-08-17T09:30:48.830Z,43.10
2022-08-17T09:31:49.672Z,42.32
2022-08-17T09:32:48.809Z,40.92
2022-08-17T09:33:48.790Z,41.51
2022-08-17T09:34:48.810Z,41.88
2022-08-17T09:35:48.774Z,39.90
2022-08-17T09:36:48.769Z,40.09
2022-08-17T09:37:48.985Z,41.47
2022-08-17T09:38:48.745Z,42.04
2022-08-17T09:39:48.826Z,41.35
2022-08-17T09:40:48.729Z,39.31
2022-08-17T09:41:49.488Z,41.08
2022-08-17T09:42:48.711Z,42.53
2022-08-17T09:43:48.689Z,40.55
2022-08-17T09:44:48.701Z,40.64
2022-08-17T09:45:48.669Z,40.21
2022-08-17T09:46:49.514Z,38.88
2022-08-17T09:47:48.653Z,38.08
2022-08-17T09:48:48.648Z,38.86
2022-08-17T09:49:48.654Z,39.25
2022-08-17T09:51:03.527Z,38.78
2022-08-17T09:51:48.613Z,40.03
2022-08-17T09:52:48.608Z,39.15
2022-08-17T09:53:49.827Z,39.94
2022-08-17T09:54:48.601Z,39.84
2022-08-17T09:55:48.566Z,41.13
2022-08-17T09:57:05.697Z,40.74
2022-08-17T09:57:48.586Z,39.78
2022-08-17T09:58:48.545Z,40.01
2022-08-17T09:59:48.544Z,40.92
2022-08-17T10:00:48.558Z,40.16
2022-08-17T10:01:48.510Z,40.94
2022-08-17T10:02:48.509Z,40.64
2022-08-17T10:03:48.486Z,40.35
2022-08-17T10:04:48.489Z,42.21
2022-08-17T10:05:48.466Z,40.43
2022-08-17T10:06:48.466Z,41.02
2022-08-17T10:07:48.440Z,41.71
2022-08-17T10:08:48.439Z,40.33
2022-08-17T10:09:48.441Z,41.61
2022-08-17T10:10:56.222Z,40.94
2022-08-17T10:11:48.443Z,41.14
2022-08-17T10:12:48.415Z,41.47
2022-08-17T10:13:53.014Z,40.86
2022-08-17T10:14:53.491Z,39.40
2022-08-17T10:15:48.370Z,40.00
2022-08-17T10:16:48.356Z,40.39
2022-08-17T10:17:48.451Z,40.90
2022-08-17T10:18:48.341Z,41.29
2022-08-17T10:19:48.340Z,41.77
2022-08-17T10:20:48.316Z,41.35
2022-08-17T10:21:48.300Z,40.86
2022-08-17T10:22:53.280Z,42.21
2022-08-17T10:23:48.288Z,41.06
2022-08-17T10:25:21.408Z,41.98
2022-08-17T10:25:54.978Z,42.35
2022-08-17T10:26:56.286Z,41.56
2022-08-17T10:27:48.244Z,43.33
2022-08-17T10:28:48.232Z,40.27
2022-08-17T10:29:49.763Z,42.58
2022-08-17T10:30:48.214Z,39.72
2022-08-17T10:31:48.200Z,39.80
2022-08-17T10:32:48.198Z,40.48
2022-08-17T10:33:48.177Z,39.09
2022-08-17T10:34:48.188Z,41.55
2022-08-17T10:35:48.159Z,39.59
2022-08-17T10:36:48.155Z,40.31
2022-08-17T10:37:48.144Z,41.72
2022-08-17T10:38:48.131Z,40.64
2022-08-17T10:39:52.014Z,40.78
2022-08-17T10:40:48.115Z,42.45
2022-08-17T10:41:48.091Z,42.96
2022-08-17T10:42:48.090Z,43.38
2022-08-17T10:44:36.805Z,44.17
2022-08-17T10:44:48.094Z,43.38
2022-08-17T10:45:48.073Z,44.07
2022-08-17T10:46:48.051Z,42.79
2022-08-17T10:47:55.597Z,43.60
2022-08-17T10:48:48.034Z,42.91
2022-08-17T10:49:48.223Z,43.52
2022-08-17T10:50:48.022Z,44.03
2022-08-17T10:51:47.992Z,45.21
2022-08-17T10:52:47.986Z,45.31
2022-08-17T10:53:47.973Z,44.84
2022-08-17T10:54:47.971Z,46.15
2022-08-17T10:55:47.974Z,45.97
2022-08-17T10:56:47.949Z,46.96
2022-08-17T10:57:48.041Z,46.59
2022-08-17T10:58:47.926Z,47.18
2022-08-17T10:59:47.915Z,47.20
2022-08-17T11:00:47.952Z,48.09
2022-08-17T11:01:47.899Z,47.60
2022-08-17T11:02:47.879Z,48.09
2022-08-17T11:03:47.872Z,47.30
2022-08-17T11:04:47.873Z,48.28
2022-08-17T11:05:47.853Z,47.99
2022-08-17T11:06:47.843Z,47.60
2022-08-17T11:07:47.834Z,47.89
2022-08-17T11:08:47.819Z,48.49
2022-08-17T11:09:47.826Z,50.19
2022-08-17T11:10:51.940Z,56.02
2022-08-17T11:11:47.786Z,54.56
2022-08-17T11:12:47.901Z,58.45
2022-08-17T11:13:47.765Z,58.28
2022-08-17T11:14:47.768Z,56.99
2022-08-17T11:15:47.750Z,58.11
2022-08-17T11:16:47.740Z,60.21
2022-08-17T11:17:47.727Z,59.52
2022-08-17T11:18:47.709Z,58.92
2022-08-17T11:19:47.719Z,60.61
2022-08-17T11:20:47.695Z,61.10
2022-08-17T11:21:47.700Z,61.13
2022-08-17T11:22:47.664Z,58.06
2022-08-17T11:23:47.656Z,57.76
2022-08-17T11:24:47.666Z,58.06
2022-08-17T11:25:47.638Z,56.68
2022-08-17T11:26:47.626Z,56.74
2022-08-17T11:27:47.616Z,56.95
2022-08-17T11:28:47.602Z,56.02
2022-08-17T11:29:52.511Z,54.94
2022-08-17T11:30:48.564Z,55.63
2022-08-17T11:31:47.579Z,54.84
2022-08-17T11:32:52.907Z,54.44
2022-08-17T11:33:47.557Z,56.49
2022-08-17T11:34:47.535Z,55.51
2022-08-17T11:35:47.544Z,55.30
2022-08-17T11:36:47.512Z,54.91
2022-08-17T11:37:47.505Z,55.30
2022-08-17T11:38:47.492Z,56.89
2022-08-17T11:39:47.553Z,55.41
2022-08-17T11:40:47.488Z,55.01
2022-08-17T11:41:47.462Z,55.80
2022-08-17T11:42:47.454Z,55.01
2022-08-17T11:43:47.435Z,55.11
2022-08-17T11:44:47.422Z,55.30
2022-08-17T11:45:47.426Z,55.11
2022-08-17T11:46:52.676Z,55.90
2022-08-17T11:48:02.478Z,56.86
2022-08-17T11:48:47.381Z,55.47
2022-08-17T11:49:47.387Z,55.08
2022-08-17T11:50:47.355Z,56.10
2022-08-17T11:51:47.362Z,56.20
2022-08-17T11:52:47.362Z,54.22
2022-08-17T11:53:47.333Z,53.72
2022-08-17T11:54:47.352Z,52.14
2022-08-17T11:55:47.301Z,52.83
2022-08-17T11:56:47.283Z,53.53
2022-08-17T11:57:47.484Z,52.64
2022-08-17T11:58:47.267Z,52.64
2022-08-17T11:59:47.265Z,52.64
2022-08-17T12:00:47.262Z,54.42
2022-08-17T12:01:47.229Z,56.30
2022-08-17T12:02:48.629Z,54.52
2022-08-17T12:03:55.346Z,55.30
2022-08-17T12:04:47.249Z,53.92
2022-08-17T12:05:47.219Z,51.35
2022-08-17T12:06:47.169Z,52.73
2022-08-17T12:07:47.164Z,51.87
2022-08-17T12:08:47.150Z,52.26
2022-08-17T12:09:47.168Z,55.70
2022-08-17T12:10:47.142Z,56.59
2022-08-17T12:12:01.622Z,54.61
2022-08-17T12:12:47.102Z,55.11
2022-08-17T12:13:47.085Z,54.81
2022-08-17T12:15:47.096Z,52.54
2022-08-17T12:16:47.060Z,52.36
2022-08-17T12:17:47.058Z,53.06
2022-08-17T12:18:47.038Z,53.58
2022-08-17T12:19:47.039Z,53.97
2022-08-17T12:20:47.033Z,53.97
2022-08-17T12:21:47.005Z,54.57
2022-08-17T12:22:46.990Z,54.86
2022-08-17T12:23:46.986Z,55.66
2022-08-17T12:24:46.967Z,54.67
2022-08-17T12:25:47.145Z,54.86
2022-08-17T12:26:46.944Z,54.67
2022-08-17T12:28:05.434Z,54.37
2022-08-17T12:28:46.933Z,54.35
2022-08-17T12:29:46.932Z,53.65
2022-08-17T12:30:46.905Z,53.25
2022-08-17T12:31:46.917Z,53.25
2022-08-17T12:32:46.881Z,53.63
2022-08-17T12:33:46.875Z,53.33
2022-08-17T12:34:46.869Z,54.84
2022-08-17T12:35:46.849Z,55.24
2022-08-17T12:36:46.847Z,54.35
2022-08-17T12:37:46.923Z,54.35
2022-08-17T12:38:47.186Z,53.72
2022-08-17T12:39:46.846Z,54.12
2022-08-17T12:40:46.788Z,54.91
2022-08-17T12:41:46.949Z,54.91
2022-08-17T12:42:46.763Z,53.70
2022-08-17T12:43:46.763Z,53.38
2022-08-17T12:44:50.504Z,53.67
2022-08-17T12:45:46.734Z,52.86
2022-08-17T12:46:46.731Z,54.21
2022-08-17T12:47:46.832Z,53.03
2022-08-17T12:48:58.962Z,51.62
2022-08-17T12:49:46.692Z,52.21
2022-08-17T12:50:46.680Z,51.47
2022-08-17T12:51:46.668Z,49.65
2022-08-17T12:52:46.654Z,47.41
2022-08-17T12:53:46.649Z,47.09
2022-08-17T12:54:46.641Z,47.09
2022-08-17T12:55:46.654Z,48.42
2022-08-17T12:56:47.616Z,47.44
2022-08-17T12:57:46.632Z,48.54
2022-08-17T12:58:46.593Z,47.36
2022-08-17T12:59:46.608Z,47.56
2022-08-17T13:00:47.627Z,47.26
2022-08-17T13:01:46.647Z,49.38
2022-08-17T13:02:46.547Z,49.08
2022-08-17T13:03:46.546Z,49.18
2022-08-17T13:04:46.550Z,49.28
2022-08-17T13:05:46.516Z,48.07
2022-08-17T13:06:46.509Z,48.14
2022-08-17T13:07:46.670Z,46.59
2022-08-17T13:08:46.487Z,48.29
2022-08-17T13:09:46.496Z,47.13
2022-08-17T13:10:46.464Z,47.35
2022-08-17T13:11:46.464Z,48.02
2022-08-17T13:12:46.447Z,47.72
2022-08-17T13:13:46.438Z,49.87
2022-08-17T13:14:46.445Z,49.06
2022-08-17T13:15:46.418Z,48.07
2022-08-17T13:16:46.407Z,50.24
2022-08-17T13:17:46.447Z,48.05
2022-08-17T13:18:46.384Z,47.56
2022-08-17T13:19:46.398Z,45.90
2022-08-17T13:20:46.360Z,46.40
2022-08-17T13:21:46.350Z,46.81
2022-08-17T13:22:46.347Z,47.33
2022-08-17T13:23:53.561Z,50.09
2022-08-17T13:24:46.348Z,48.32
2022-08-17T13:25:46.325Z,49.20
2022-08-17T13:26:46.301Z,47.72
2022-08-17T13:27:46.394Z,49.03
2022-08-17T13:28:46.275Z,49.74
2022-08-17T13:29:51.462Z,49.67
2022-08-17T13:30:46.267Z,51.07
2022-08-17T13:31:56.406Z,51.57
2022-08-17T13:32:46.254Z,51.94
2022-08-17T13:33:46.237Z,50.66
2022-08-17T13:35:07.802Z,51.37
2022-08-17T13:35:49.923Z,51.28
2022-08-17T13:36:46.197Z,51.15
2022-08-17T13:37:46.216Z,51.54
2022-08-17T13:38:46.178Z,51.15
2022-08-17T13:39:46.213Z,51.45
2022-08-17T13:40:46.156Z,52.63
2022-08-17T13:41:46.151Z,51.54
2022-08-17T13:42:52.863Z,50.24
2022-08-17T13:43:46.136Z,50.31
2022-08-17T13:44:46.130Z,49.69
2022-08-17T13:45:46.107Z,48.69
2022-08-17T13:46:46.095Z,47.66
2022-08-17T13:47:46.174Z,46.84
2022-08-17T13:48:46.069Z,47.22
2022-08-17T13:49:48.905Z,47.31
2022-08-17T13:50:46.055Z,48.59
2022-08-17T13:51:46.048Z,46.82
2022-08-17T13:52:50.065Z,47.12
2022-08-17T13:53:46.032Z,46.21
2022-08-17T13:54:46.043Z,46.68
2022-08-17T13:55:46.005Z,45.99
2022-08-17T13:56:46.003Z,45.18
2022-08-17T13:57:46.108Z,44.57
2022-08-17T13:58:45.967Z,44.81
2022-08-17T13:59:54.767Z,44.15
2022-08-17T14:00:45.958Z,45.45
2022-08-17T14:01:52.562Z,46.57
2022-08-17T14:02:45.935Z,47.26
2022-08-17T14:03:45.923Z,47.06
2022-08-17T14:04:45.931Z,46.35
2022-08-17T14:05:45.901Z,46.94
2022-08-17T14:06:53.013Z,49.04
2022-08-17T14:07:45.890Z,50.71
2022-08-17T14:08:45.867Z,49.90
2022-08-17T14:09:45.863Z,47.73
2022-08-17T14:10:45.870Z,48.69
2022-08-17T14:11:45.840Z,45.94
2022-08-17T14:12:45.831Z,46.13
2022-08-17T14:13:46.454Z,46.75
2022-08-17T14:14:45.830Z,46.53
2022-08-17T14:15:56.243Z,47.88
2022-08-17T14:16:45.795Z,44.83
2022-08-17T14:17:45.780Z,44.24
2022-08-17T14:18:56.650Z,44.34
2022-08-17T14:19:45.786Z,45.50
2022-08-17T14:20:45.747Z,45.77
2022-08-17T14:21:45.738Z,44.49
2022-08-17T14:22:45.729Z,44.77
2022-08-17T14:23:54.341Z,43.32
2022-08-17T14:24:45.715Z,44.01
2022-08-17T14:25:45.718Z,44.37
2022-08-17T14:26:45.682Z,44.89
2022-08-17T14:27:53.590Z,44.79
2022-08-17T14:28:56.262Z,45.77
2022-08-17T14:29:45.663Z,43.43
2022-08-17T14:30:45.699Z,43.85
2022-08-17T14:31:48.532Z,44.58
2022-08-17T14:32:45.631Z,45.88
2022-08-17T14:33:45.617Z,41.89
2022-08-17T14:34:45.616Z,43.07
2022-08-17T14:35:45.593Z,42.97
2022-08-17T14:36:48.614Z,43.17
2022-08-17T14:37:45.579Z,43.84
2022-08-17T14:38:45.560Z,42.68
2022-08-17T14:39:45.598Z,43.93
2022-08-17T14:40:45.544Z,43.34
2022-08-17T14:41:45.589Z,43.44
2022-08-17T14:42:45.931Z,43.42
2022-08-17T14:43:45.520Z,42.63
2022-08-17T14:44:45.517Z,42.32
2022-08-17T14:45:45.503Z,42.52
2022-08-17T14:46:45.478Z,42.10
2022-08-17T14:47:45.475Z,41.59
2022-08-17T14:48:45.467Z,42.57
2022-08-17T14:49:47.647Z,41.56
2022-08-17T14:50:45.442Z,42.16
2022-08-17T14:51:45.432Z,41.94
2022-08-17T14:52:45.421Z,40.56
2022-08-17T14:53:45.413Z,40.17
2022-08-17T14:54:46.002Z,39.50
2022-08-17T14:55:45.394Z,40.86
2022-08-17T14:56:45.375Z,39.48
2022-08-17T14:57:45.495Z,38.82
2022-08-17T14:58:45.356Z,39.70
2022-08-17T14:59:45.374Z,39.98
2022-08-17T15:00:45.348Z,38.72
2022-08-17T15:01:45.429Z,40.48
2022-08-17T15:02:45.321Z,37.95
2022-08-17T15:03:45.331Z,38.54
2022-08-17T15:04:45.832Z,38.93
2022-08-17T15:05:45.294Z,38.34
2022-08-17T15:06:45.273Z,39.74
2022-08-17T15:07:45.272Z,39.07
2022-08-17T15:08:45.261Z,38.99
2022-08-17T15:09:45.264Z,38.40
2022-08-17T15:10:45.286Z,39.47
2022-08-17T15:11:45.229Z,39.87
2022-08-17T15:12:45.221Z,39.37
2022-08-17T15:13:52.462Z,39.09
2022-08-17T15:14:45.219Z,39.40
2022-08-17T15:15:45.188Z,39.89
2022-08-17T15:16:45.178Z,40.09
2022-08-17T15:17:45.946Z,39.52
2022-08-17T15:18:45.182Z,40.21
2022-08-17T15:19:45.177Z,39.50
2022-08-17T15:20:45.197Z,40.09
2022-08-17T15:21:45.120Z,40.29
2022-08-17T15:22:45.117Z,40.58
2022-08-17T15:23:45.101Z,40.98
2022-08-17T15:24:45.116Z,41.38
2022-08-17T15:25:45.082Z,41.27
2022-08-17T15:26:45.074Z,40.48
2022-08-17T15:27:45.193Z,40.58
2022-08-17T15:28:49.903Z,40.58
2022-08-17T15:29:45.063Z,40.00
2022-08-17T15:30:45.034Z,38.91
2022-08-17T15:31:45.029Z,41.08
2022-08-17T15:32:50.571Z,40.37
2022-08-17T15:33:45.009Z,41.47
2022-08-17T15:34:45.009Z,42.04
2022-08-17T15:35:44.983Z,39.89
2022-08-17T15:36:49.238Z,40.00
2022-08-17T15:37:45.133Z,39.32
2022-08-17T15:38:44.938Z,39.23
2022-08-17T15:39:44.993Z,40.31
2022-08-17T15:40:44.934Z,40.21
2022-08-17T15:41:44.916Z,39.92
2022-08-17T15:42:44.914Z,40.31
2022-08-17T15:43:44.896Z,41.78
2022-08-17T15:44:44.904Z,43.44
2022-08-17T15:45:44.877Z,42.87
2022-08-17T15:46:44.880Z,44.45
2022-08-17T15:47:44.995Z,45.16
2022-08-17T15:48:44.863Z,45.95
2022-08-17T15:49:44.852Z,46.74
2022-08-17T15:50:44.830Z,48.91
2022-08-17T15:51:44.814Z,47.53
2022-08-17T15:52:44.862Z,47.03
2022-08-17T15:53:44.806Z,47.94
2022-08-17T15:54:45.326Z,47.45
2022-08-17T15:55:44.775Z,47.94
2022-08-17T15:56:44.770Z,48.36
2022-08-17T15:57:44.760Z,49.35
2022-08-17T15:58:44.751Z,49.05
2022-08-17T15:59:44.747Z,49.37
2022-08-17T16:00:53.389Z,50.14
2022-08-17T16:03:15.017Z,49.87
2022-08-17T16:04:04.414Z,50.46
2022-08-17T16:04:26.733Z,50.95
2022-08-17T16:05:01.718Z,50.36
2022-08-17T16:06:01.533Z,50.36
2022-08-17T16:07:01.553Z,50.56
2022-08-17T16:08:01.513Z,50.98
2022-08-17T16:09:01.507Z,51.07
2022-08-17T16:10:01.510Z,51.70
2022-08-17T16:11:01.485Z,52.29
2022-08-17T16:12:01.469Z,52.12
2022-08-17T16:13:01.462Z,52.61
2022-08-17T16:14:01.471Z,52.81
2022-08-17T16:15:01.442Z,53.00
2022-08-17T16:16:01.432Z,53.30
2022-08-17T16:17:01.425Z,52.41
2022-08-17T16:18:01.403Z,52.61
2022-08-17T16:19:01.585Z,52.81
2022-08-17T16:20:01.384Z,52.81
2022-08-17T16:21:01.385Z,52.81
2022-08-17T16:22:01.361Z,53.28
2022-08-17T16:23:01.370Z,52.69
2022-08-17T16:24:01.351Z,52.48
2022-08-17T16:25:01.332Z,52.48
2022-08-17T16:26:01.324Z,53.47
2022-08-17T16:27:01.311Z,52.29
2022-08-17T16:28:01.300Z,52.69
2022-08-17T16:29:01.309Z,53.38
2022-08-17T16:30:01.277Z,52.71
2022-08-17T16:31:01.278Z,53.11
2022-08-17T16:32:01.303Z,53.30
2022-08-17T16:33:01.254Z,53.42
2022-08-17T16:34:17.353Z,53.50
2022-08-17T16:35:01.247Z,53.50
2022-08-17T16:36:01.227Z,53.50
2022-08-17T16:37:01.211Z,53.00
2022-08-17T16:38:01.193Z,53.20
2022-08-17T16:39:01.211Z,53.40
2022-08-17T16:40:01.212Z,53.60
2022-08-17T16:41:01.171Z,53.92
2022-08-17T16:42:01.151Z,53.82
2022-08-17T16:43:01.147Z,54.24
2022-08-17T16:44:01.156Z,54.94
2022-08-17T16:45:01.132Z,54.74
2022-08-17T16:46:01.108Z,54.84
2022-08-17T16:47:01.104Z,55.46
2022-08-17T16:48:01.090Z,55.46
2022-08-17T16:49:01.103Z,55.36
2022-08-17T16:50:01.065Z,55.88
2022-08-17T16:51:03.945Z,55.68
2022-08-17T16:52:01.047Z,55.88
2022-08-17T16:53:01.043Z,55.98
2022-08-17T16:54:01.033Z,55.58
2022-08-17T16:55:01.015Z,56.28
2022-08-17T16:56:01.004Z,55.58
2022-08-17T16:57:00.993Z,55.91
2022-08-17T16:58:00.978Z,56.80
2022-08-17T16:59:07.285Z,56.70
2022-08-17T17:00:00.958Z,56.77
2022-08-17T17:01:01.003Z,56.77
2022-08-17T17:02:00.931Z,57.76
2022-08-17T17:03:00.924Z,56.68
2022-08-17T17:04:00.914Z,56.48
2022-08-17T17:05:00.919Z,56.68
2022-08-17T17:06:00.892Z,56.48
2022-08-17T17:07:00.884Z,57.17
2022-08-17T17:08:00.871Z,56.87
2022-08-17T17:09:00.860Z,56.48
2022-08-17T17:10:00.853Z,56.18
2022-08-17T17:11:00.834Z,56.08
2022-08-17T17:12:00.821Z,56.18
2022-08-17T17:13:03.668Z,56.87
2022-08-17T17:14:00.794Z,56.38
2022-08-17T17:15:00.803Z,56.87
2022-08-17T17:16:00.774Z,56.87
2022-08-17T17:17:00.768Z,56.57
2022-08-17T17:18:01.795Z,56.28
2022-08-17T17:19:00.743Z,56.77
2022-08-17T17:20:00.742Z,56.68
2022-08-17T17:21:00.721Z,56.80
2022-08-17T17:22:00.708Z,57.10
2022-08-17T17:23:00.704Z,57.40
2022-08-17T17:24:00.685Z,58.09
2022-08-17T17:25:00.688Z,58.65
2022-08-17T17:26:00.649Z,57.79
2022-08-17T17:27:01.380Z,57.59
2022-08-17T17:28:00.654Z,58.98
2022-08-17T17:29:00.634Z,58.39
2022-08-17T17:30:00.638Z,59.08
2022-08-17T17:31:02.209Z,58.78
2022-08-17T17:32:00.598Z,58.19
2022-08-17T17:33:00.594Z,58.12
2022-08-17T17:34:00.587Z,59.01
2022-08-17T17:35:00.582Z,58.61
2022-08-17T17:36:00.556Z,58.94
2022-08-17T17:37:00.546Z,59.23
2022-08-17T17:38:00.535Z,59.63
2022-08-17T17:39:00.532Z,60.23
2022-08-17T17:40:00.709Z,59.93